createdAt,value
2019-03-05T00:02:32.072Z,53.34
2019-03-05T00:05:21.091Z,53.33
2019-03-05T00:08:09.938Z,52.98
2019-03-05T00:10:58.788Z,53.03
2019-03-05T00:13:47.603Z,53.36
2019-03-05T00:16:36.437Z,52.78
2019-03-05T00:19:25.267Z,52.70
2019-03-05T00:22:14.074Z,52.84
2019-03-05T00:25:23.918Z,52.48
2019-03-05T00:28:03.493Z,52.52
2019-03-05T00:30:46.951Z,52.85
2019-03-05T00:33:39.390Z,52.75
2019-03-05T00:36:19.329Z,52.74
2019-03-05T00:39:26.442Z,52.90
2019-03-05T00:42:43.084Z,53.27
2019-03-05T00:45:39.826Z,52.67
2019-03-05T00:48:39.511Z,52.36
2019-03-05T00:51:25.140Z,52.57
2019-03-05T00:54:20.271Z,52.67
2019-03-05T00:56:57.325Z,52.55
2019-03-05T00:59:34.468Z,52.64
2019-03-05T01:02:29.375Z,52.44
2019-03-05T01:05:36.843Z,52.58
2019-03-05T01:08:06.548Z,52.83
2019-03-05T01:10:36.084Z,52.52
2019-03-05T01:13:06.284Z,52.83
2019-03-05T01:15:35.987Z,52.60
2019-03-05T01:18:05.543Z,52.42
2019-03-05T01:20:35.093Z,52.13
2019-03-05T01:23:04.628Z,52.39
2019-03-05T01:25:37.093Z,52.59
2019-03-05T01:28:06.965Z,52.93
2019-03-05T01:30:52.922Z,51.90
2019-03-05T01:33:22.542Z,52.00
2019-03-05T01:35:56.374Z,52.13
2019-03-05T01:38:25.865Z,51.82
2019-03-05T01:40:57.023Z,51.02
2019-03-05T01:43:26.567Z,51.00
2019-03-05T01:45:56.124Z,50.75
2019-03-05T01:48:25.653Z,50.77
2019-03-05T01:50:55.146Z,51.01
2019-03-05T01:53:24.626Z,51.19
2019-03-05T01:55:54.160Z,51.30
2019-03-05T01:58:23.617Z,51.78
2019-03-05T02:00:53.211Z,52.01
2019-03-05T02:03:22.884Z,52.39
2019-03-05T02:05:52.490Z,52.50
2019-03-05T02:08:22.147Z,52.66
2019-03-05T02:10:51.626Z,52.96
2019-03-05T02:13:21.324Z,53.09
2019-03-05T02:15:50.803Z,53.51
2019-03-05T02:18:21.678Z,53.64
2019-03-05T02:20:51.231Z,53.86
2019-03-05T02:23:28.445Z,54.06
2019-03-05T02:26:08.198Z,54.19
2019-03-05T02:28:48.189Z,54.49
2019-03-05T02:31:49.376Z,54.42
2019-03-05T02:34:35.359Z,54.57
2019-03-05T02:37:21.575Z,54.77
2019-03-05T02:40:07.537Z,54.51
2019-03-05T02:43:11.585Z,54.73
2019-03-05T02:45:48.391Z,55.16
2019-03-05T02:48:37.468Z,54.92
2019-03-05T02:51:23.413Z,55.25
2019-03-05T02:54:23.059Z,55.38
2019-03-05T02:57:08.429Z,55.44
2019-03-05T02:59:38.511Z,55.50
2019-03-05T03:02:20.467Z,55.96
2019-03-05T03:04:51.633Z,55.77
2019-03-05T03:07:21.115Z,55.79
2019-03-05T03:09:55.297Z,55.79
2019-03-05T03:12:24.859Z,56.06
2019-03-05T03:14:54.395Z,56.08
2019-03-05T03:17:23.848Z,56.12
2019-03-05T03:19:53.398Z,56.22
2019-03-05T03:22:22.915Z,56.12
2019-03-05T03:24:52.384Z,56.03
2019-03-05T03:27:21.850Z,56.09
2019-03-05T03:29:51.327Z,56.01
2019-03-05T03:32:20.862Z,55.82
2019-03-05T03:34:50.366Z,55.83
2019-03-05T03:37:19.843Z,55.83
2019-03-05T03:39:49.298Z,55.79
2019-03-05T03:42:18.813Z,55.58
2019-03-05T03:44:48.258Z,55.55
2019-03-05T03:47:17.729Z,55.58
2019-03-05T03:49:47.300Z,55.52
2019-03-05T03:52:16.790Z,55.65
2019-03-05T03:54:46.265Z,55.37
2019-03-05T03:57:15.722Z,55.29
2019-03-05T03:59:45.314Z,55.37
2019-03-05T04:02:14.798Z,55.33
2019-03-05T04:04:44.244Z,55.35
2019-03-05T04:07:13.890Z,56.83
2019-03-05T04:09:43.341Z,56.84
2019-03-05T04:12:12.839Z,57.59
2019-03-05T04:14:42.300Z,57.39
2019-03-05T04:17:11.800Z,57.87
2019-03-05T04:19:41.265Z,57.93
2019-03-05T04:22:10.753Z,58.32
2019-03-05T04:24:40.337Z,58.54
2019-03-05T04:27:09.778Z,59.05
2019-03-05T04:29:39.261Z,59.08
2019-03-05T04:32:08.761Z,59.34
2019-03-05T04:34:38.218Z,59.51
2019-03-05T04:37:07.684Z,59.77
2019-03-05T04:39:37.165Z,59.82
2019-03-05T04:42:06.659Z,60.00
2019-03-05T04:44:37.758Z,59.81
2019-03-05T04:47:07.247Z,60.03
2019-03-05T04:49:56.689Z,59.94
2019-03-05T04:52:26.255Z,60.19
2019-03-05T04:54:55.701Z,59.92
2019-03-05T04:57:26.353Z,59.97
2019-03-05T04:59:56.727Z,59.63
2019-03-05T05:02:26.283Z,59.73
2019-03-05T05:04:58.710Z,59.37
2019-03-05T05:07:28.175Z,59.07
2019-03-05T05:09:57.669Z,58.86
2019-03-05T05:12:27.126Z,58.96
2019-03-05T05:14:56.601Z,58.79
2019-03-05T05:17:26.056Z,58.45
2019-03-05T05:19:55.535Z,57.81
2019-03-05T05:22:25.017Z,58.26
2019-03-05T05:24:54.539Z,57.94
2019-03-05T05:27:24.040Z,57.83
2019-03-05T05:29:53.526Z,57.64
2019-03-05T05:32:22.994Z,57.89
2019-03-05T05:34:52.455Z,57.99
2019-03-05T05:37:21.952Z,58.10
2019-03-05T05:40:23.588Z,58.13
2019-03-05T05:42:53.211Z,58.33
2019-03-05T05:45:41.290Z,58.59
2019-03-05T05:48:10.794Z,58.37
2019-03-05T05:50:40.247Z,58.43
2019-03-05T05:53:09.730Z,58.37
2019-03-05T05:55:39.188Z,58.44
2019-03-05T05:58:08.760Z,58.89
2019-03-05T06:00:42.336Z,58.84
2019-03-05T06:03:11.880Z,59.03
2019-03-05T06:05:41.356Z,58.96
2019-03-05T06:08:10.886Z,58.55
2019-03-05T06:10:40.456Z,58.80
2019-03-05T06:13:09.963Z,58.94
2019-03-05T06:15:39.512Z,59.11
2019-03-05T06:18:08.990Z,59.01
2019-03-05T06:20:38.490Z,59.25
2019-03-05T06:23:07.994Z,59.05
2019-03-05T06:25:37.528Z,59.21
2019-03-05T06:28:07.033Z,59.32
2019-03-05T06:30:42.000Z,59.34
2019-03-05T06:33:11.630Z,59.69
2019-03-05T06:35:41.118Z,59.98
2019-03-05T06:38:29.929Z,60.13
2019-03-05T06:41:18.751Z,60.02
2019-03-05T06:44:09.458Z,60.30
2019-03-05T06:46:58.222Z,60.14
2019-03-05T06:49:47.066Z,60.66
2019-03-05T06:52:35.895Z,60.91
2019-03-05T06:55:24.744Z,61.06
2019-03-05T06:58:13.660Z,60.54
2019-03-05T07:01:02.481Z,60.64
2019-03-05T07:03:51.291Z,60.60
2019-03-05T07:06:59.424Z,60.66
2019-03-05T07:10:09.160Z,61.45
2019-03-05T07:13:18.871Z,60.98
2019-03-05T07:16:02.380Z,61.03
2019-03-05T07:19:12.115Z,61.23
2019-03-05T07:22:22.063Z,61.48
2019-03-05T07:24:51.907Z,61.55
2019-03-05T07:27:28.010Z,61.88
2019-03-05T07:30:02.098Z,62.29
2019-03-05T07:32:31.652Z,62.07
2019-03-05T07:35:01.167Z,62.60
2019-03-05T07:37:30.614Z,63.18
2019-03-05T07:40:00.373Z,63.18
2019-03-05T07:42:29.800Z,63.17
2019-03-05T07:44:59.306Z,62.66
2019-03-05T07:47:28.766Z,62.75
2019-03-05T07:49:58.228Z,63.09
2019-03-05T07:52:27.793Z,63.18
2019-03-05T07:54:57.307Z,62.98
2019-03-05T07:57:26.757Z,63.29
2019-03-05T07:59:56.250Z,63.02
2019-03-05T08:02:25.780Z,63.13
2019-03-05T08:04:55.346Z,63.17
2019-03-05T08:07:24.789Z,63.23
2019-03-05T08:09:55.730Z,63.08
2019-03-05T08:12:35.651Z,63.57
2019-03-05T08:15:15.752Z,63.97
2019-03-05T08:17:47.026Z,64.10
2019-03-05T08:20:16.428Z,63.59
2019-03-05T08:22:45.937Z,63.61
2019-03-05T08:25:15.993Z,63.44
2019-03-05T08:27:45.512Z,63.70
2019-03-05T08:30:18.874Z,63.67
2019-03-05T08:32:48.418Z,63.61
2019-03-05T08:35:17.976Z,63.05
2019-03-05T08:37:47.465Z,62.99
2019-03-05T08:40:17.608Z,62.39
2019-03-05T08:42:47.057Z,63.16
2019-03-05T08:45:28.508Z,63.21
2019-03-05T08:47:48.937Z,62.80
2019-03-05T08:50:18.613Z,62.78
2019-03-05T08:52:48.205Z,63.08
2019-03-05T08:55:17.812Z,62.60
2019-03-05T08:57:47.267Z,62.50
2019-03-05T09:00:21.174Z,62.42
2019-03-05T09:02:50.808Z,62.45
2019-03-05T09:05:20.846Z,62.68
2019-03-05T09:07:50.420Z,62.70
2019-03-05T09:10:24.473Z,62.59
2019-03-05T09:12:54.034Z,62.72
2019-03-05T09:15:23.661Z,62.88
2019-03-05T09:17:53.223Z,62.88
2019-03-05T09:20:22.678Z,62.74
2019-03-05T09:22:52.228Z,63.14
2019-03-05T09:25:21.794Z,62.92
2019-03-05T09:27:51.258Z,62.94
2019-03-05T09:30:22.370Z,63.08
2019-03-05T09:32:51.929Z,62.93
2019-03-05T09:35:21.418Z,62.90
2019-03-05T09:37:50.959Z,62.68
2019-03-05T09:40:31.914Z,62.45
2019-03-05T09:43:01.540Z,62.71
2019-03-05T09:45:31.055Z,62.48
2019-03-05T09:48:00.522Z,62.17
2019-03-05T09:50:32.166Z,62.55
2019-03-05T09:53:01.588Z,62.09
2019-03-05T09:55:36.927Z,61.45
2019-03-05T09:58:08.642Z,61.28
2019-03-05T10:00:38.772Z,60.94
2019-03-05T10:03:08.629Z,60.84
2019-03-05T10:05:38.206Z,61.30
2019-03-05T10:08:07.916Z,61.07
2019-03-05T10:10:37.604Z,61.51
2019-03-05T10:13:07.411Z,61.09
2019-03-05T10:15:36.975Z,61.09
2019-03-05T10:18:12.704Z,60.94
2019-03-05T10:20:37.955Z,59.93
2019-03-05T10:23:07.496Z,59.72
2019-03-05T10:25:37.052Z,59.07
2019-03-05T10:28:06.878Z,59.40
2019-03-05T10:30:41.128Z,59.58
2019-03-05T10:33:15.147Z,59.02
2019-03-05T10:35:44.891Z,58.30
2019-03-05T10:38:14.718Z,59.12
2019-03-05T10:40:51.266Z,59.50
2019-03-05T10:43:20.764Z,59.35
2019-03-05T10:45:50.866Z,58.76
2019-03-05T10:48:25.239Z,58.72
2019-03-05T10:50:54.817Z,59.10
2019-03-05T10:53:24.555Z,58.89
2019-03-05T10:55:54.086Z,58.76
2019-03-05T10:58:33.407Z,58.60
2019-03-05T11:00:57.111Z,58.96
2019-03-05T11:03:29.811Z,58.89
2019-03-05T11:05:59.774Z,58.80
2019-03-05T11:08:29.601Z,58.75
2019-03-05T11:11:00.516Z,58.74
2019-03-05T11:13:30.107Z,58.35
2019-03-05T11:16:02.488Z,58.30
2019-03-05T11:18:32.041Z,58.32
2019-03-05T11:21:01.662Z,58.12
2019-03-05T11:23:31.179Z,57.73
2019-03-05T11:26:00.773Z,57.28
2019-03-05T11:28:30.281Z,57.08
2019-03-05T11:30:59.766Z,57.00
2019-03-05T11:33:29.369Z,57.16
2019-03-05T11:35:58.829Z,57.71
2019-03-05T11:38:28.503Z,56.52
2019-03-05T11:40:58.213Z,56.24
2019-03-05T11:43:27.798Z,57.14
2019-03-05T11:45:57.418Z,56.24
2019-03-05T11:48:27.012Z,56.30
2019-03-05T11:50:56.505Z,55.26
2019-03-05T11:53:26.004Z,55.32
2019-03-05T11:55:55.484Z,55.40
2019-03-05T11:58:24.986Z,54.78
2019-03-05T12:01:01.713Z,55.40
2019-03-05T12:03:31.397Z,55.05
2019-03-05T12:06:01.006Z,55.08
2019-03-05T12:08:30.486Z,55.01
2019-03-05T12:10:59.967Z,53.96
2019-03-05T12:13:29.704Z,54.12
2019-03-05T12:15:59.418Z,53.40
2019-03-05T12:18:28.963Z,53.08
2019-03-05T12:20:58.435Z,52.56
2019-03-05T12:23:27.937Z,52.66
2019-03-05T12:25:57.534Z,51.97
2019-03-05T12:28:27.026Z,51.24
2019-03-05T12:30:56.563Z,51.96
2019-03-05T12:33:26.168Z,51.51
2019-03-05T12:35:55.760Z,52.65
2019-03-05T12:38:25.226Z,51.52
2019-03-05T12:40:54.770Z,51.69
2019-03-05T12:43:24.478Z,52.14
2019-03-05T12:45:54.032Z,51.85
2019-03-05T12:48:23.636Z,51.83
2019-03-05T12:50:53.186Z,51.85
2019-03-05T12:53:22.805Z,52.47
2019-03-05T12:55:52.425Z,52.87
2019-03-05T12:58:22.210Z,52.91
2019-03-05T13:00:51.823Z,53.94
2019-03-05T13:03:21.337Z,54.88
2019-03-05T13:05:50.922Z,56.62
2019-03-05T13:08:20.406Z,56.39
2019-03-05T13:10:49.998Z,57.35
2019-03-05T13:13:19.723Z,57.40
2019-03-05T13:15:52.959Z,58.83
2019-03-05T13:18:20.665Z,58.95
2019-03-05T13:20:50.134Z,60.81
2019-03-05T13:23:20.648Z,60.93
2019-03-05T13:25:50.148Z,61.88
2019-03-05T13:28:19.781Z,62.76
2019-03-05T13:30:49.426Z,62.68
2019-03-05T13:33:18.948Z,62.14
2019-03-05T13:35:48.532Z,64.35
2019-03-05T13:38:18.089Z,65.65
2019-03-05T13:40:47.658Z,65.67
2019-03-05T13:43:17.219Z,67.33
2019-03-05T13:45:49.585Z,65.95
2019-03-05T13:48:34.561Z,65.64
2019-03-05T13:51:59.612Z,66.93
2019-03-05T13:55:05.556Z,66.80
2019-03-05T13:57:45.506Z,66.69
2019-03-05T14:00:15.570Z,66.14
2019-03-05T14:03:04.877Z,64.10
2019-03-05T14:06:01.682Z,64.82
2019-03-05T14:08:47.571Z,64.76
2019-03-05T14:11:17.158Z,63.88
2019-03-05T14:13:46.759Z,64.58
2019-03-05T14:16:18.082Z,64.15
2019-03-05T14:18:47.872Z,65.16
2019-03-05T14:21:17.437Z,64.98
2019-03-05T14:24:06.301Z,65.25
2019-03-05T14:26:55.205Z,65.10
2019-03-05T14:29:44.197Z,65.92
2019-03-05T14:32:33.060Z,64.52
2019-03-05T14:38:37.782Z,64.89
2019-03-05T14:41:26.715Z,65.40
2019-03-05T14:44:15.797Z,63.85
2019-03-05T14:47:25.483Z,64.19
2019-03-05T14:50:14.382Z,62.84
2019-03-05T14:53:03.249Z,61.85
2019-03-05T14:55:54.498Z,59.35
2019-03-05T14:58:42.866Z,58.36
2019-03-05T15:01:31.890Z,58.31
2019-03-05T15:04:20.846Z,56.69
2019-03-05T15:06:50.388Z,55.75
2019-03-05T15:09:39.362Z,55.98
2019-03-05T15:12:28.373Z,54.12
2019-03-05T15:15:36.589Z,54.95
2019-03-05T15:18:25.529Z,54.63
2019-03-05T15:21:07.218Z,53.49
2019-03-05T15:23:56.157Z,53.63
2019-03-05T15:26:45.056Z,53.82
2019-03-05T15:29:33.954Z,53.04
2019-03-05T15:32:22.891Z,53.96
2019-03-05T15:38:40.552Z,53.95
2019-03-05T15:41:29.515Z,53.11
2019-03-05T15:44:18.597Z,52.45
2019-03-05T15:47:07.509Z,52.09
2019-03-05T15:49:56.483Z,51.49
2019-03-05T15:52:45.417Z,51.82
2019-03-05T15:55:34.281Z,52.07
2019-03-05T15:58:23.148Z,51.28
2019-03-05T16:01:18.876Z,51.43
2019-03-05T16:04:02.765Z,50.84
2019-03-05T16:06:51.690Z,52.43
2019-03-05T16:09:41.990Z,52.06
2019-03-05T16:12:31.178Z,52.67
2019-03-05T16:15:20.258Z,52.68
2019-03-05T16:18:05.283Z,51.82
2019-03-05T16:20:52.775Z,50.33
2019-03-05T16:23:41.641Z,51.17
2019-03-05T16:26:30.601Z,50.88
2019-03-05T16:29:20.158Z,51.15
2019-03-05T16:32:29.026Z,49.33
2019-03-05T16:35:36.948Z,51.65
2019-03-05T16:38:44.824Z,51.26
2019-03-05T16:41:33.519Z,51.54
2019-03-05T16:47:37.443Z,51.12
2019-03-05T16:50:45.307Z,52.43
2019-03-05T16:53:53.228Z,52.43
2019-03-05T16:57:01.108Z,52.22
2019-03-05T17:00:08.975Z,51.32
2019-03-05T17:06:26.396Z,51.98
2019-03-05T17:09:15.140Z,53.53
2019-03-05T17:12:04.078Z,53.37
2019-03-05T17:14:52.943Z,54.48
2019-03-05T17:17:35.003Z,54.72
2019-03-05T17:20:23.853Z,54.18
2019-03-05T17:23:12.707Z,54.77
2019-03-05T17:26:01.531Z,55.65
2019-03-05T17:28:50.398Z,55.97
2019-03-05T17:31:39.324Z,56.21
2019-03-05T17:34:39.947Z,56.05
2019-03-05T17:37:18.732Z,56.44
2019-03-05T17:40:28.511Z,56.98
2019-03-05T17:43:17.378Z,56.93
2019-03-05T17:46:06.258Z,56.88
2019-03-05T17:48:55.080Z,56.85
2019-03-05T17:51:43.996Z,57.16
2019-03-05T17:54:32.870Z,57.31
2019-03-05T17:57:21.738Z,57.51
2019-03-05T17:59:51.314Z,57.84
2019-03-05T18:02:20.926Z,58.18
2019-03-05T18:04:50.387Z,58.66
2019-03-05T18:07:19.915Z,58.93
2019-03-05T18:09:49.464Z,59.15
2019-03-05T18:12:19.045Z,59.11
2019-03-05T18:14:48.553Z,59.20
2019-03-05T18:17:18.177Z,59.28
2019-03-05T18:19:47.874Z,59.75
2019-03-05T18:22:17.475Z,59.57
2019-03-05T18:24:46.985Z,60.05
2019-03-05T18:27:16.580Z,60.21
2019-03-05T18:29:46.207Z,59.92
2019-03-05T18:32:15.769Z,60.39
2019-03-05T18:34:45.391Z,60.48
2019-03-05T18:37:15.072Z,60.68
2019-03-05T18:39:44.786Z,60.65
2019-03-05T18:42:14.382Z,60.68
2019-03-05T18:44:43.946Z,61.25
2019-03-05T18:47:13.458Z,61.29
2019-03-05T18:49:42.952Z,61.45
2019-03-05T18:52:12.520Z,61.45
2019-03-05T18:54:42.178Z,61.37
2019-03-05T18:57:11.714Z,61.39
2019-03-05T18:59:41.207Z,61.67
2019-03-05T19:02:10.808Z,61.83
2019-03-05T19:04:40.406Z,61.97
2019-03-05T19:07:10.015Z,62.07
2019-03-05T19:09:41.524Z,62.17
2019-03-05T19:12:11.191Z,62.38
2019-03-05T19:14:40.896Z,62.41
2019-03-05T19:17:10.574Z,62.47
2019-03-05T19:19:40.048Z,62.62
2019-03-05T19:22:09.556Z,62.68
2019-03-05T19:24:39.207Z,62.74
2019-03-05T19:27:08.851Z,62.92
2019-03-05T19:29:38.450Z,63.03
2019-03-05T19:32:08.100Z,63.09
2019-03-05T19:34:37.804Z,63.26
2019-03-05T19:37:07.381Z,63.43
2019-03-05T19:39:37.019Z,63.38
2019-03-05T19:42:06.672Z,63.29
2019-03-05T19:44:36.274Z,63.51
2019-03-05T19:47:06.050Z,63.44
2019-03-05T19:49:35.774Z,63.67
2019-03-05T19:52:05.463Z,63.72
2019-03-05T19:54:34.966Z,63.75
2019-03-05T19:57:04.534Z,63.92
2019-03-05T19:59:34.017Z,63.89
2019-03-05T20:02:03.611Z,63.95
2019-03-05T20:04:33.231Z,63.93
2019-03-05T20:07:02.779Z,64.04
2019-03-05T20:09:32.290Z,64.25
2019-03-05T20:12:01.800Z,64.08
2019-03-05T20:14:31.352Z,63.98
2019-03-05T20:17:00.928Z,64.36
2019-03-05T20:19:30.411Z,64.51
2019-03-05T20:22:00.002Z,64.61
2019-03-05T20:24:29.795Z,64.46
2019-03-05T20:26:59.450Z,64.46
2019-03-05T20:29:28.948Z,64.57
2019-03-05T20:31:58.524Z,64.34
2019-03-05T20:34:28.022Z,64.42
2019-03-05T20:36:57.838Z,64.23
2019-03-05T20:39:27.308Z,64.56
2019-03-05T20:41:56.947Z,65.02
2019-03-05T20:44:26.402Z,65.31
2019-03-05T20:46:56.025Z,65.44
2019-03-05T20:49:25.913Z,65.42
2019-03-05T20:51:55.487Z,65.20
2019-03-05T20:54:25.090Z,65.37
2019-03-05T20:56:54.612Z,65.35
2019-03-05T20:59:24.219Z,65.29
2019-03-05T21:01:53.866Z,65.45
2019-03-05T21:04:23.422Z,65.40
2019-03-05T21:06:52.898Z,65.43
2019-03-05T21:09:23.575Z,65.50
2019-03-05T21:11:53.147Z,65.30
2019-03-05T21:14:22.742Z,65.11
2019-03-05T21:16:52.387Z,65.42
2019-03-05T21:19:21.989Z,65.26
2019-03-05T21:21:51.498Z,65.28
2019-03-05T21:24:21.105Z,65.15
2019-03-05T21:26:50.572Z,65.36
2019-03-05T21:29:21.271Z,65.59
2019-03-05T21:31:50.832Z,65.58
2019-03-05T21:34:20.328Z,65.77
2019-03-05T21:36:50.124Z,66.09
2019-03-05T21:39:19.685Z,65.96
2019-03-05T21:41:49.192Z,66.06
2019-03-05T21:44:18.709Z,65.96
2019-03-05T21:46:48.298Z,65.81
2019-03-05T21:49:17.931Z,66.07
2019-03-05T21:51:47.578Z,66.27
2019-03-05T21:54:17.154Z,66.45
2019-03-05T21:56:46.611Z,66.52
2019-03-05T21:59:16.094Z,66.40
2019-03-05T22:01:45.571Z,66.52
2019-03-05T22:04:15.181Z,66.49
2019-03-05T22:06:44.659Z,66.54
2019-03-05T22:09:14.259Z,66.42
2019-03-05T22:11:43.968Z,66.31
2019-03-05T22:14:13.431Z,66.46
2019-03-05T22:16:42.929Z,66.61
2019-03-05T22:19:12.557Z,66.70
2019-03-05T22:21:42.142Z,66.79
2019-03-05T22:24:11.740Z,66.74
2019-03-05T22:26:41.238Z,66.73
2019-03-05T22:29:10.795Z,66.94
2019-03-05T22:31:40.445Z,66.67
2019-03-05T22:34:09.973Z,66.76
2019-03-05T22:36:39.544Z,66.86
2019-03-05T22:39:09.164Z,66.88
2019-03-05T22:41:39.495Z,66.90
2019-03-05T22:44:09.010Z,66.57
2019-03-05T22:46:38.608Z,66.73
2019-03-05T22:49:08.140Z,66.90
2019-03-05T22:51:37.672Z,66.84
2019-03-05T22:54:07.221Z,66.64
2019-03-05T22:56:36.822Z,66.59
2019-03-05T22:59:06.673Z,66.52
2019-03-05T23:01:37.464Z,66.28
2019-03-05T23:04:07.315Z,66.32
2019-03-05T23:06:37.004Z,66.31
2019-03-05T23:09:09.830Z,66.01
2019-03-05T23:11:39.378Z,66.22
2019-03-05T23:14:09.029Z,66.09
2019-03-05T23:16:38.605Z,65.95
2019-03-05T23:19:08.369Z,66.12
2019-03-05T23:21:38.202Z,66.13
2019-03-05T23:24:08.081Z,65.56
2019-03-05T23:26:37.576Z,65.40
2019-03-05T23:29:09.628Z,65.29
2019-03-05T23:31:39.273Z,65.20
2019-03-05T23:34:17.881Z,65.20
2019-03-05T23:36:40.084Z,65.33
2019-03-05T23:39:13.030Z,65.15
2019-03-05T23:41:42.672Z,64.86
2019-03-05T23:44:12.434Z,64.49
2019-03-05T23:46:42.055Z,64.32
2019-03-05T23:49:11.748Z,64.30
2019-03-05T23:51:41.256Z,64.35
2019-03-05T23:54:10.837Z,64.31
2019-03-05T23:56:40.361Z,63.89
2019-03-05T23:59:09.858Z,63.78
